createdAt,value
2022-09-15T00:05:06.138Z,74.64
2022-09-15T00:17:06.625Z,71.21
2022-09-15T00:29:07.080Z,71.76
2022-09-15T00:41:07.510Z,76.65
2022-09-15T00:53:07.936Z,72.72
2022-09-15T01:05:08.415Z,73.10
2022-09-15T01:17:08.918Z,73.49
2022-09-15T01:29:09.330Z,72.07
2022-09-15T01:53:10.256Z,73.58
2022-09-15T02:05:10.702Z,74.62
2022-09-15T02:17:11.162Z,73.25
2022-09-15T02:29:11.630Z,77.12
2022-09-15T02:41:12.041Z,78.26
2022-09-15T02:53:12.492Z,73.69
2022-09-15T03:05:12.971Z,72.56
2022-09-15T03:17:13.424Z,76.10
2022-09-15T03:29:13.903Z,75.73
2022-09-15T03:41:14.321Z,76.62
2022-09-15T03:53:14.791Z,76.12
2022-09-15T04:05:15.253Z,76.29
2022-09-15T04:17:15.676Z,81.18
2022-09-15T04:29:16.155Z,77.79
2022-09-15T04:41:16.620Z,75.91
2022-09-15T04:53:17.074Z,74.27
2022-09-15T05:05:17.536Z,79.53
2022-09-15T05:17:17.986Z,77.23
2022-09-15T05:29:18.445Z,75.64
2022-09-15T05:41:18.872Z,76.24
2022-09-15T05:53:19.318Z,72.74
2022-09-15T06:05:19.826Z,74.32
2022-09-15T06:17:20.253Z,71.96
2022-09-15T06:29:20.708Z,73.23
2022-09-15T06:41:21.122Z,74.51
2022-09-15T06:53:21.604Z,73.76
2022-09-15T07:05:22.080Z,75.97
2022-09-15T07:17:22.538Z,77.34
2022-09-15T07:29:22.984Z,73.01
2022-09-15T07:41:23.454Z,72.59
2022-09-15T07:53:23.907Z,74.61
2022-09-15T08:05:24.325Z,71.76
2022-09-15T08:17:24.788Z,71.45
2022-09-15T08:29:25.453Z,61.29
2022-09-15T08:41:25.712Z,66.54
2022-09-15T08:53:26.139Z,66.88
2022-09-15T09:05:26.633Z,63.00
2022-09-15T09:17:27.107Z,61.56
2022-09-15T09:29:27.495Z,52.52
2022-09-15T09:41:27.998Z,53.29
2022-09-15T09:53:28.408Z,53.00
2022-09-15T10:05:29.043Z,60.14
2022-09-15T10:17:29.350Z,57.65
2022-09-15T10:29:29.788Z,58.91
2022-09-15T10:41:30.566Z,62.81
2022-09-15T10:53:30.733Z,62.56
2022-09-15T11:05:31.176Z,62.85
2022-09-15T11:17:31.639Z,62.82
2022-09-15T11:29:32.100Z,66.24
2022-09-15T11:41:32.547Z,70.83
2022-09-15T11:53:33.019Z,76.30
2022-09-15T12:05:33.451Z,75.38
2022-09-15T12:17:33.901Z,74.72
2022-09-15T12:29:36.911Z,74.20
2022-09-15T12:41:34.803Z,75.22
2022-09-15T13:05:35.740Z,73.54
2022-09-15T13:17:36.205Z,69.07
2022-09-15T13:29:36.645Z,72.77
2022-09-15T13:41:37.104Z,72.70
2022-09-15T13:53:37.540Z,69.18
2022-09-15T14:05:38.034Z,69.32
2022-09-15T14:17:38.426Z,68.21
2022-09-15T14:29:38.920Z,72.75
2022-09-15T14:41:39.379Z,67.45
2022-09-15T14:53:39.862Z,72.31
2022-09-15T15:05:40.284Z,67.23
2022-09-15T15:17:40.762Z,67.65
2022-09-15T15:29:41.185Z,68.23
2022-09-15T15:41:41.763Z,65.98
2022-09-15T15:53:42.090Z,69.35
2022-09-15T16:05:42.554Z,70.90
2022-09-15T16:17:45.989Z,70.34
2022-09-15T16:29:43.486Z,70.92
2022-09-15T16:41:44.264Z,71.05
2022-09-15T16:53:44.714Z,70.80
2022-09-15T17:05:48.306Z,70.02
2022-09-15T17:17:45.670Z,69.18
2022-09-15T17:29:46.131Z,69.04
2022-09-15T17:41:46.539Z,69.97
2022-09-15T17:53:47.180Z,71.69
2022-09-15T18:05:47.513Z,70.51
2022-09-15T18:17:47.935Z,71.14
2022-09-15T18:29:48.341Z,71.63
2022-09-15T18:53:53.387Z,70.96
2022-09-15T19:05:49.726Z,70.99
2022-09-15T19:17:50.203Z,69.84
2022-09-15T19:29:50.658Z,70.10
2022-09-15T19:41:51.115Z,71.28
2022-09-15T19:53:51.551Z,70.78
2022-09-15T20:05:52.015Z,71.50
2022-09-15T20:17:52.433Z,70.74
2022-09-15T20:29:52.954Z,68.90
2022-09-15T20:41:53.384Z,70.79
2022-09-15T20:53:53.882Z,70.16
2022-09-15T21:05:54.302Z,69.95
2022-09-15T21:17:54.734Z,69.19
2022-09-15T21:29:55.191Z,70.47
2022-09-15T21:41:55.625Z,74.21
2022-09-15T21:53:56.067Z,71.64
2022-09-15T22:05:56.573Z,75.25
2022-09-15T22:17:57.037Z,71.58
2022-09-15T22:29:57.460Z,72.52
2022-09-15T22:41:57.929Z,74.46
2022-09-15T22:53:58.416Z,75.36
2022-09-15T23:05:58.847Z,75.00
2022-09-15T23:17:59.273Z,74.17
2022-09-15T23:29:59.729Z,72.12
2022-09-15T23:42:00.167Z,73.75
2022-09-15T23:54:00.681Z,76.43
